createdAt,value
2018-08-24T00:00:31.561Z,20.3
2018-08-24T00:01:21.052Z,20.3
2018-08-24T00:02:11.677Z,20.3
2018-08-24T00:03:01.184Z,20.3
2018-08-24T00:03:51.823Z,20.3
2018-08-24T00:04:41.863Z,20.3
2018-08-24T00:05:32.003Z,20.3
2018-08-24T00:06:21.965Z,20.3
2018-08-24T00:07:12.222Z,20.3
2018-08-24T00:08:02.139Z,20.3
2018-08-24T00:08:52.227Z,20.3
2018-08-24T00:09:42.221Z,20.3
2018-08-24T00:10:32.060Z,20.3
2018-08-24T00:11:22.413Z,20.3
2018-08-24T00:12:12.130Z,20.3
2018-08-24T00:31:12.691Z,20.2
2018-08-24T00:32:02.766Z,20.2
2018-08-24T00:32:52.528Z,20.2
2018-08-24T00:33:42.596Z,20.2
2018-08-24T00:34:33.176Z,20.2
2018-08-24T00:35:22.986Z,20.2
2018-08-24T00:36:13.021Z,20.2
2018-08-24T00:37:03.109Z,20.1
2018-08-24T00:37:53.169Z,20.1
2018-08-24T00:38:42.680Z,20.1
2018-08-24T00:39:33.035Z,20.1
2018-08-24T00:40:23.402Z,20.1
2018-08-24T00:41:13.162Z,20.1
2018-08-24T00:42:03.241Z,20.1
2018-08-24T00:42:53.568Z,20.1
2018-08-24T00:43:43.371Z,20.1
2018-08-24T00:44:33.716Z,20.1
2018-08-24T00:45:23.439Z,20.1
2018-08-24T00:46:14.064Z,20.1
2018-08-24T00:47:03.595Z,20.1
2018-08-24T00:47:53.976Z,20.1
2018-08-24T00:48:43.732Z,20.1
2018-08-24T00:49:33.795Z,20.1
2018-08-24T00:50:23.588Z,20.1
2018-08-24T00:51:14.210Z,20.1
2018-08-24T00:52:03.969Z,20.1
2018-08-24T00:52:54.555Z,20
2018-08-24T00:53:44.115Z,20
2018-08-24T00:54:34.458Z,20
2018-08-24T00:55:24.369Z,20
2018-08-24T00:56:14.018Z,20
2018-08-24T00:57:04.910Z,20
2018-08-24T00:57:54.729Z,20
2018-08-24T00:58:44.770Z,20
2018-08-24T00:59:34.828Z,19.9
2018-08-24T01:00:24.627Z,19.9
2018-08-24T01:01:14.975Z,19.9
2018-08-24T01:02:04.994Z,19.9
2018-08-24T01:02:54.540Z,19.9
2018-08-24T01:03:45.164Z,19.9
2018-08-24T01:04:35.271Z,19.9
2018-08-24T01:05:25.291Z,19.9
2018-08-24T01:06:15.358Z,19.9
2018-08-24T01:07:05.674Z,19.9
2018-08-24T01:07:55.463Z,19.9
2018-08-24T01:08:45.568Z,19.9
2018-08-24T01:09:35.044Z,19.9
2018-08-24T01:10:25.375Z,19.9
2018-08-24T01:11:15.502Z,19.9
2018-08-24T01:12:05.523Z,19.9
2018-08-24T01:12:55.849Z,19.9
2018-08-24T01:13:45.651Z,19.9
2018-08-24T01:14:36.022Z,19.9
2018-08-24T01:15:26.063Z,19.9
2018-08-24T01:16:16.091Z,19.9
2018-08-24T01:17:05.903Z,19.9
2018-08-24T01:17:56.489Z,19.9
2018-08-24T01:18:46.267Z,19.9
2018-08-24T01:19:36.368Z,19.9
2018-08-24T01:20:26.188Z,19.9
2018-08-24T01:21:16.221Z,19.9
2018-08-24T01:22:06.836Z,19.8
2018-08-24T01:22:56.623Z,19.8
2018-08-24T01:23:46.691Z,19.8
2018-08-24T01:24:36.760Z,19.8
2018-08-24T01:25:26.555Z,19.9
2018-08-24T01:26:16.873Z,19.9
2018-08-24T01:27:06.672Z,19.8
2018-08-24T01:27:56.451Z,19.8
2018-08-24T01:28:47.320Z,19.9
2018-08-24T01:29:36.921Z,19.9
2018-08-24T01:30:27.225Z,19.9
2018-08-24T01:31:17.254Z,19.9
2018-08-24T01:32:07.323Z,19.9
2018-08-24T01:32:57.446Z,19.9
2018-08-24T01:33:47.178Z,19.8
2018-08-24T01:34:36.958Z,19.9
2018-08-24T01:35:27.317Z,19.9
2018-08-24T01:36:17.647Z,19.9
2018-08-24T01:37:07.688Z,19.9
2018-08-24T01:37:57.736Z,19.9
2018-08-24T01:38:47.626Z,19.9
2018-08-24T01:39:37.901Z,19.9
2018-08-24T01:40:27.968Z,19.8
2018-08-24T01:41:17.756Z,19.9
2018-08-24T01:42:22.760Z,19.9
2018-08-24T01:42:57.888Z,19.9
2018-08-24T01:43:48.209Z,19.8
2018-08-24T01:44:38.035Z,19.9
2018-08-24T01:45:28.360Z,19.9
2018-08-24T01:46:18.402Z,19.9
2018-08-24T01:47:08.487Z,19.8
2018-08-24T01:47:58.563Z,19.8
2018-08-24T01:48:48.043Z,19.8
2018-08-24T01:49:38.672Z,19.9
2018-08-24T01:50:28.446Z,19.9
2018-08-24T01:51:18.807Z,19.9
2018-08-24T01:52:08.871Z,19.9
2018-08-24T01:52:58.654Z,19.9
2018-08-24T01:53:49.011Z,19.9
2018-08-24T01:54:39.301Z,19.9
2018-08-24T01:55:29.166Z,19.9
2018-08-24T01:56:18.891Z,19.9
2018-08-24T01:57:09.251Z,19.9
2018-08-24T01:57:59.323Z,19.9
2018-08-24T01:58:49.402Z,19.9
2018-08-24T01:59:39.156Z,19.9
2018-08-24T02:00:29.233Z,19.8
2018-08-24T02:01:19.571Z,19.9
2018-08-24T02:02:09.353Z,19.8
2018-08-24T02:02:59.440Z,19.9
2018-08-24T02:03:50.154Z,19.8
2018-08-24T02:04:39.835Z,19.8
2018-08-24T02:05:29.613Z,19.8
2018-08-24T02:06:19.966Z,19.8
2018-08-24T02:07:10.015Z,19.8
2018-08-24T02:08:00.085Z,19.8
2018-08-24T02:08:49.617Z,19.8
2018-08-24T02:09:55.122Z,19.8
2018-08-24T02:10:30.278Z,19.8
2018-08-24T02:11:20.047Z,19.8
2018-08-24T02:12:10.395Z,19.8
2018-08-24T02:12:59.892Z,19.8
2018-08-24T02:13:50.654Z,19.8
2018-08-24T02:14:40.601Z,19.8
2018-08-24T02:15:30.390Z,19.8
2018-08-24T02:16:20.706Z,19.8
2018-08-24T02:17:10.531Z,19.8
2018-08-24T02:18:00.574Z,19.8
2018-08-24T02:18:50.913Z,19.8
2018-08-24T02:19:40.700Z,19.8
2018-08-24T02:20:30.747Z,19.8
2018-08-24T02:21:20.850Z,19.8
2018-08-24T02:22:11.179Z,19.8
2018-08-24T02:23:01.245Z,19.8
2018-08-24T02:23:51.529Z,19.8
2018-08-24T02:24:40.823Z,19.8
2018-08-24T02:25:31.478Z,19.8
2018-08-24T02:26:21.216Z,19.8
2018-08-24T02:27:11.280Z,19.8
2018-08-24T02:28:01.454Z,19.8
2018-08-24T02:28:51.131Z,19.8
2018-08-24T02:29:40.912Z,19.8
2018-08-24T02:30:31.833Z,19.7
2018-08-24T02:31:22.364Z,19.8
2018-08-24T02:32:11.978Z,19.7
2018-08-24T02:33:01.724Z,19.7
2018-08-24T02:33:52.575Z,19.7
2018-08-24T02:34:42.371Z,19.7
2018-08-24T02:35:32.480Z,19.7
2018-08-24T02:36:21.698Z,19.7
2018-08-24T02:37:12.053Z,19.7
2018-08-24T02:38:16.762Z,19.6
2018-08-24T02:38:52.185Z,19.6
2018-08-24T02:39:42.528Z,19.6
2018-08-24T02:40:31.726Z,19.6
2018-08-24T02:41:22.652Z,19.6
2018-08-24T02:42:12.455Z,19.6
2018-08-24T02:43:02.806Z,19.6
2018-08-24T02:43:52.789Z,19.6
2018-08-24T02:44:43.413Z,19.6
2018-08-24T02:45:32.703Z,19.6
2018-08-24T02:46:23.241Z,19.6
2018-08-24T02:47:13.098Z,19.6
2018-08-24T02:48:03.152Z,19.6
2018-08-24T02:48:53.209Z,19.6
2018-08-24T02:49:42.992Z,19.5
2018-08-24T02:50:33.055Z,19.5
2018-08-24T02:51:23.095Z,19.5
2018-08-24T02:52:13.468Z,19.5
2018-08-24T02:53:03.515Z,19.4
2018-08-24T02:53:53.308Z,19.4
2018-08-24T02:54:43.649Z,19.5
2018-08-24T02:55:33.719Z,19.4
2018-08-24T02:56:23.467Z,19.4
2018-08-24T02:57:13.740Z,19.4
2018-08-24T02:58:03.955Z,19.4
2018-08-24T02:58:53.997Z,19.4
2018-08-24T02:59:43.727Z,19.4
2018-08-24T03:00:34.109Z,19.4
2018-08-24T03:01:24.186Z,19.4
2018-08-24T03:02:14.241Z,19.4
2018-08-24T03:03:04.036Z,19.3
2018-08-24T03:03:54.390Z,19.4
2018-08-24T03:04:44.403Z,19.3
2018-08-24T03:05:35.853Z,19.3
2018-08-24T03:06:24.013Z,19.3
2018-08-24T03:07:14.617Z,19.3
2018-08-24T03:08:04.693Z,19.3
2018-08-24T03:08:54.683Z,19.3
2018-08-24T03:09:45.072Z,19.3
2018-08-24T03:10:34.641Z,19.3
2018-08-24T03:11:24.940Z,19.3
2018-08-24T03:12:15.005Z,19.3
2018-08-24T03:13:04.824Z,19.2
2018-08-24T03:13:54.300Z,19.2
2018-08-24T03:14:44.659Z,19.2
2018-08-24T03:15:34.996Z,19.1
2018-08-24T03:16:25.953Z,19.1
2018-08-24T03:17:15.138Z,19.1
2018-08-24T03:18:05.167Z,19.1
2018-08-24T03:18:55.327Z,19.1
2018-08-24T03:19:45.032Z,19.1
2018-08-24T03:20:35.637Z,19.1
2018-08-24T03:21:25.720Z,19.1
2018-08-24T03:22:15.786Z,19.1
2018-08-24T03:23:05.563Z,19.1
2018-08-24T03:23:55.624Z,19
2018-08-24T03:24:45.687Z,19
2018-08-24T03:25:36.041Z,19
2018-08-24T03:26:26.075Z,19
2018-08-24T03:27:15.881Z,18.9
2018-08-24T03:28:06.240Z,18.9
2018-08-24T03:28:55.988Z,18.9
2018-08-24T03:29:46.294Z,18.9
2018-08-24T03:30:36.649Z,18.9
2018-08-24T03:31:26.540Z,18.9
2018-08-24T03:32:16.876Z,18.9
2018-08-24T03:33:06.584Z,18.8
2018-08-24T03:33:56.379Z,18.8
2018-08-24T03:34:46.445Z,18.8
2018-08-24T03:35:36.837Z,18.8
2018-08-24T03:36:26.881Z,18.8
2018-08-24T03:39:47.130Z,18.6
2018-08-24T03:40:36.935Z,18.6
2018-08-24T03:41:27.256Z,18.6
2018-08-24T03:42:17.277Z,18.6
2018-08-24T03:43:07.406Z,18.6
2018-08-24T03:43:57.456Z,18.6
2018-08-24T03:44:47.232Z,18.6
2018-08-24T03:45:37.112Z,18.5
2018-08-24T03:46:27.077Z,18.5
2018-08-24T03:47:17.170Z,18.5
2018-08-24T03:48:07.277Z,18.5
2018-08-24T03:48:57.076Z,18.4
2018-08-24T03:49:47.956Z,18.4
2018-08-24T03:50:37.959Z,18.4
2018-08-24T03:51:28.027Z,18.4
2018-08-24T03:53:08.101Z,18.4
2018-08-24T03:53:58.198Z,18.4
2018-08-24T03:54:47.697Z,18.4
2018-08-24T03:55:38.327Z,18.4
2018-08-24T03:56:28.644Z,18.3
2018-08-24T03:57:18.435Z,18.3
2018-08-24T03:58:08.234Z,18.3
2018-08-24T03:58:58.792Z,18.3
2018-08-24T03:59:48.368Z,18.3
2018-08-24T04:00:38.438Z,18.3
2018-08-24T04:01:29.043Z,18.3
2018-08-24T04:02:18.908Z,18.3
2018-08-24T04:03:08.904Z,18.3
2018-08-24T04:03:58.684Z,18.3
2018-08-24T04:04:49.044Z,18.3
2018-08-24T04:05:38.801Z,18.3
2018-08-24T04:06:29.146Z,18.3
2018-08-24T04:07:19.260Z,18.3
2018-08-24T04:08:09.015Z,18.3
2018-08-24T04:08:59.366Z,18.3
2018-08-24T04:09:49.402Z,18.3
2018-08-24T04:10:39.492Z,18.3
2018-08-24T04:11:29.558Z,18.3
2018-08-24T04:12:19.609Z,18.3
2018-08-24T04:13:09.892Z,18.3
2018-08-24T04:14:00.149Z,18.3
2018-08-24T04:14:49.523Z,18.3
2018-08-24T04:15:39.862Z,18.3
2018-08-24T04:16:29.651Z,18.3
2018-08-24T04:17:19.986Z,18.3
2018-08-24T04:18:10.045Z,18.3
2018-08-24T04:18:59.830Z,18.4
2018-08-24T04:19:50.241Z,18.4
2018-08-24T04:20:40.266Z,18.4
2018-08-24T04:21:30.346Z,18.4
2018-08-24T04:22:20.381Z,18.4
2018-08-24T04:23:10.163Z,18.4
2018-08-24T04:24:00.496Z,18.4
2018-08-24T04:24:50.579Z,18.4
2018-08-24T04:25:41.018Z,18.4
2018-08-24T04:26:30.729Z,18.4
2018-08-24T04:27:20.749Z,18.4
2018-08-24T04:28:10.830Z,18.4
2018-08-24T04:29:00.895Z,18.5
2018-08-24T04:29:50.941Z,18.5
2018-08-24T04:30:41.036Z,18.5
2018-08-24T04:31:31.140Z,18.5
2018-08-24T04:32:21.415Z,18.5
2018-08-24T04:33:11.474Z,18.5
2018-08-24T04:34:01.223Z,18.6
2018-08-24T04:34:51.604Z,18.6
2018-08-24T04:35:41.394Z,18.6
2018-08-24T04:36:30.902Z,18.6
2018-08-24T04:37:21.262Z,18.6
2018-08-24T04:38:11.538Z,18.6
2018-08-24T04:39:01.431Z,18.6
2018-08-24T04:41:31.555Z,18.8
2018-08-24T04:42:22.175Z,18.8
2018-08-24T05:01:13.994Z,21.3
2018-08-24T05:02:04.073Z,21.4
2018-08-24T05:02:54.122Z,21.5
2018-08-24T05:03:44.181Z,21.6
2018-08-24T05:04:34.253Z,21.8
2018-08-24T05:05:24.564Z,21.8
2018-08-24T05:06:14.151Z,22
2018-08-24T05:07:04.141Z,22.1
2018-08-24T05:07:54.499Z,22.3
2018-08-24T05:08:44.561Z,22.4
2018-08-24T05:09:34.628Z,22.5
2018-08-24T05:10:24.961Z,22.6
2018-08-24T05:11:14.181Z,22.8
2018-08-24T05:12:04.240Z,22.9
2018-08-24T05:12:54.590Z,23.1
2018-08-24T05:13:44.941Z,23.2
2018-08-24T05:14:35.018Z,23.3
2018-08-24T05:15:25.091Z,23.4
2018-08-24T05:16:15.120Z,23.6
2018-08-24T05:17:04.621Z,23.8
2018-08-24T05:17:54.695Z,23.9
2018-08-24T05:18:45.043Z,24.1
2018-08-24T05:19:35.112Z,24.3
2018-08-24T05:20:25.452Z,24.4
2018-08-24T05:21:15.430Z,24.6
2018-08-24T05:22:05.297Z,24.8
2018-08-24T05:22:55.351Z,25
2018-08-24T05:23:45.719Z,25.3
2018-08-24T05:24:35.293Z,25.4
2018-08-24T05:25:25.530Z,25.7
2018-08-24T05:26:15.610Z,25.9
2018-08-24T05:27:05.676Z,26.1
2018-08-24T05:27:55.492Z,26.4
2018-08-24T05:28:45.804Z,26.6
2018-08-24T05:29:36.151Z,26.9
2018-08-24T05:30:26.219Z,27.1
2018-08-24T05:31:16.523Z,27.4
2018-08-24T05:32:06.331Z,27.6
2018-08-24T05:32:56.117Z,27.9
2018-08-24T05:33:46.167Z,28.1
2018-08-24T05:34:36.260Z,28.4
2018-08-24T05:35:26.072Z,28.7
2018-08-24T05:36:16.377Z,28.9
2018-08-24T05:37:06.148Z,29.2
2018-08-24T05:37:56.295Z,29.5
2018-08-24T05:38:46.286Z,29.8
2018-08-24T05:39:36.622Z,30.1
2018-08-24T05:40:26.676Z,30.3
2018-08-24T05:41:17.135Z,30.6
2018-08-24T05:42:07.379Z,30.8
2018-08-24T05:42:56.884Z,31.1
2018-08-24T05:43:46.947Z,31.4
2018-08-24T05:44:37.306Z,31.6
2018-08-24T05:45:27.612Z,31.9
2018-08-24T05:46:17.443Z,32.2
2018-08-24T05:47:06.926Z,32.4
2018-08-24T05:47:57.552Z,32.8
2018-08-24T05:48:47.716Z,33
2018-08-24T05:49:37.675Z,33.3
2018-08-24T05:50:27.577Z,33.6
2018-08-24T05:51:17.824Z,33.9
2018-08-24T05:52:07.856Z,34.3
2018-08-24T05:52:57.354Z,34.6
2018-08-24T05:53:47.701Z,34.9
2018-08-24T05:54:38.056Z,35.3
2018-08-24T05:55:27.859Z,35.6
2018-08-24T05:56:18.187Z,36
2018-08-24T05:57:08.500Z,36.4
2018-08-24T05:57:57.745Z,36.7
2018-08-24T05:58:48.401Z,37
2018-08-24T05:59:37.574Z,37.3
2018-08-24T06:00:28.542Z,37.5
2018-08-24T06:01:18.294Z,37.8
2018-08-24T06:02:08.637Z,37.9
2018-08-24T06:02:58.933Z,38.2
2018-08-24T06:03:48.764Z,38.4
2018-08-24T06:04:38.826Z,38.7
2018-08-24T06:05:28.883Z,38.9
2018-08-24T06:06:18.958Z,39.2
2018-08-24T06:07:09.016Z,39.4
2018-08-24T06:07:58.783Z,39.6
2018-08-24T06:08:48.852Z,39.9
2018-08-24T06:09:39.207Z,40.1
2018-08-24T06:10:29.297Z,40.4
2018-08-24T06:11:19.337Z,40.7
2018-08-24T06:12:09.397Z,41
2018-08-24T06:12:59.455Z,41.4
2018-08-24T06:13:49.530Z,41.7
2018-08-24T06:14:39.609Z,42.1
2018-08-24T06:15:29.645Z,42.4
2018-08-24T06:16:19.754Z,42.6
2018-08-24T06:17:09.811Z,42.8
2018-08-24T06:17:59.841Z,43
2018-08-24T06:18:49.634Z,43.1
2018-08-24T06:19:39.691Z,43.3
2018-08-24T06:20:30.044Z,43.5
2018-08-24T06:21:20.164Z,43.8
2018-08-24T06:22:10.197Z,44.1
2018-08-24T06:23:00.245Z,44.5
2018-08-24T06:23:49.436Z,44.9
2018-08-24T06:24:39.969Z,45.3
2018-08-24T06:25:30.420Z,45.7
2018-08-24T06:26:20.496Z,46.1
2018-08-24T06:27:10.560Z,46.3
2018-08-24T06:27:59.754Z,46.4
2018-08-24T06:28:50.712Z,46.6
2018-08-24T06:29:40.757Z,46.7
2018-08-24T06:30:30.527Z,46.8
2018-08-24T06:31:20.875Z,47
2018-08-24T06:32:10.942Z,47.1
2018-08-24T06:33:01.260Z,47.3
2018-08-24T06:33:50.780Z,47.4
2018-08-24T06:34:41.157Z,47.6
2018-08-24T06:35:30.907Z,47.8
2018-08-24T06:36:21.239Z,48.1
2018-08-24T06:37:10.748Z,48.3
2018-08-24T06:38:01.378Z,48.7
2018-08-24T06:38:51.449Z,49.1
2018-08-24T06:39:41.224Z,49.6
2018-08-24T06:40:31.562Z,49.9
2018-08-24T06:41:21.599Z,50.4
2018-08-24T06:42:11.689Z,50.9
2018-08-24T06:43:01.778Z,51.4
2018-08-24T06:44:41.882Z,52.4
2018-08-24T06:45:31.950Z,52.9
2018-08-24T06:46:22.040Z,53.4
2018-08-24T06:47:12.239Z,54.6
2018-08-24T06:48:02.205Z,55.1
2018-08-24T06:48:52.258Z,54.1
2018-08-24T06:49:42.280Z,51.8
2018-08-24T06:50:32.047Z,47.9
2018-08-24T06:51:21.826Z,45.3
2018-08-24T06:52:12.179Z,43.8
2018-08-24T06:53:02.108Z,42.8
2018-08-24T06:53:53.144Z,42.3
2018-08-24T06:54:42.093Z,42
2018-08-24T06:55:32.724Z,42
2018-08-24T06:56:22.814Z,42.2
2018-08-24T06:57:12.569Z,42.6
2018-08-24T06:58:02.920Z,43
2018-08-24T06:58:52.998Z,43.5
2018-08-24T06:59:43.211Z,44.1
2018-08-24T07:00:32.828Z,44.8
2018-08-24T07:01:23.182Z,45.4
2018-08-24T07:02:12.986Z,46.3
2018-08-24T07:03:03.321Z,47.1
2018-08-24T07:03:53.349Z,48
2018-08-24T07:04:43.433Z,48.8
2018-08-24T07:05:33.509Z,49.7
2018-08-24T07:06:23.575Z,50.4
2018-08-24T07:07:13.339Z,51.1
2018-08-24T07:08:53.769Z,52.7
2018-08-24T07:09:44.069Z,53.4
2018-08-24T07:10:33.903Z,54.8
2018-08-24T07:11:23.968Z,55.8
2018-08-24T07:12:14.020Z,54.6
2018-08-24T07:13:04.215Z,53.1
2018-08-24T07:13:54.187Z,51.1
2018-08-24T07:14:44.483Z,49.4
2018-08-24T07:15:34.303Z,48.2
2018-08-24T07:16:24.332Z,47.5
2018-08-24T07:17:14.387Z,47.2
2018-08-24T07:18:04.176Z,47.3
2018-08-24T07:18:54.276Z,47.5
2018-08-24T07:19:44.589Z,48
2018-08-24T07:20:34.371Z,48.6
2018-08-24T07:21:24.449Z,49.4
2018-08-24T07:22:14.494Z,50.3
2018-08-24T07:23:04.574Z,51.2
2018-08-24T07:23:55.173Z,52.1
2018-08-24T07:24:44.962Z,53.1
2018-08-24T07:25:34.754Z,54.8
2018-08-24T07:26:24.828Z,56.4
2018-08-24T07:27:14.882Z,56.3
2018-08-24T07:28:05.266Z,56.1
2018-08-24T07:28:55.569Z,54.8
2018-08-24T07:29:44.862Z,53.3
2018-08-24T07:30:35.165Z,52.1
2018-08-24T07:31:25.503Z,51.6
2018-08-24T07:32:15.574Z,51.8
2018-08-24T07:33:05.354Z,52.1
2018-08-24T07:33:55.690Z,52.3
2018-08-24T07:34:46.020Z,52.3
2018-08-24T07:35:35.836Z,52
2018-08-24T07:36:25.901Z,51.8
2018-08-24T07:37:15.948Z,51.6
2018-08-24T07:38:06.023Z,51.6
2018-08-24T07:38:55.827Z,51.6
2018-08-24T07:39:46.116Z,51.6
2018-08-24T07:40:36.220Z,51.6
2018-08-24T07:41:26.332Z,51.6
2018-08-24T07:42:16.336Z,51.4
2018-08-24T07:43:06.370Z,51.4
2018-08-24T07:43:56.497Z,51.5
2018-08-24T07:44:45.975Z,51.6
2018-08-24T07:45:36.600Z,51.7
2018-08-24T07:46:26.682Z,51.8
2018-08-24T07:47:16.458Z,52
2018-08-24T07:48:06.808Z,52.2
2018-08-24T07:48:56.934Z,52.4
2018-08-24T07:49:46.929Z,52.7
2018-08-24T07:50:36.989Z,53
2018-08-24T07:51:26.765Z,53.2
2018-08-24T07:52:17.127Z,53.3
2018-08-24T07:53:07.193Z,53.3
2018-08-24T07:53:57.257Z,53.3
2018-08-24T07:54:47.027Z,53.3
2018-08-24T07:55:37.144Z,53.3
2018-08-24T07:56:27.166Z,53.4
2018-08-24T07:57:17.237Z,53.5
2018-08-24T07:58:07.567Z,53.7
2018-08-24T07:58:57.644Z,53.8
2018-08-24T07:59:47.699Z,53.8
2018-08-24T08:00:37.783Z,53.9
2018-08-24T08:01:27.832Z,54
2018-08-24T08:02:17.899Z,54.1
2018-08-24T08:03:08.202Z,54.1
2018-08-24T08:03:58.018Z,54.1
2018-08-24T08:04:48.097Z,54.1
2018-08-24T08:05:38.179Z,54
2018-08-24T08:06:28.265Z,54.1
2018-08-24T08:07:18.279Z,54.1
2018-08-24T08:08:08.085Z,54.3
2018-08-24T08:08:58.132Z,54.4
2018-08-24T08:09:48.525Z,54.5
2018-08-24T08:10:38.256Z,54.7
2018-08-24T08:11:28.333Z,54.8
2018-08-24T08:12:18.105Z,54.9
2018-08-24T08:13:08.748Z,55.1
2018-08-24T08:13:58.807Z,55.4
2018-08-24T08:14:48.609Z,55.8
2018-08-24T08:15:38.941Z,55.9
2018-08-24T08:16:28.718Z,56.1
2018-08-24T08:17:18.500Z,56.1
2018-08-24T08:18:09.517Z,56.2
2018-08-24T08:18:59.202Z,56.2
2018-08-24T08:19:49.300Z,56.3
2018-08-24T08:20:39.343Z,56.5
2018-08-24T08:21:29.384Z,56.6
2018-08-24T08:22:19.490Z,56.8
2018-08-24T08:23:09.535Z,57.1
2018-08-24T08:23:59.575Z,57.2
2018-08-24T08:24:50.079Z,57.3
2018-08-24T08:25:39.715Z,57.4
2018-08-24T08:26:29.502Z,57.6
2018-08-24T08:27:19.841Z,57.6
2018-08-24T08:28:09.929Z,57.4
2018-08-24T08:29:00.217Z,57.4
2018-08-24T08:29:49.753Z,57.5
2018-08-24T08:31:29.879Z,57.9
2018-08-24T08:32:20.228Z,58.1
2018-08-24T08:33:10.286Z,58.1
2018-08-24T08:34:00.336Z,57.9
2018-08-24T08:34:50.433Z,57.5
2018-08-24T08:35:40.731Z,57.3
2018-08-24T08:36:30.568Z,57.4
2018-08-24T08:37:20.907Z,57.6
2018-08-24T08:38:10.423Z,57.9
2018-08-24T08:39:00.749Z,58.3
2018-08-24T08:40:40.578Z,58.8
2018-08-24T08:41:30.661Z,58.8
2018-08-24T08:42:21.262Z,58.9
2018-08-24T08:43:11.062Z,59.1
2018-08-24T08:44:01.138Z,59.3
2018-08-24T08:44:51.267Z,59.4
2018-08-24T08:45:41.279Z,59.6
2018-08-24T08:46:31.358Z,59.8
2018-08-24T08:47:21.404Z,60
2018-08-24T08:48:11.179Z,60.2
2018-08-24T08:49:01.536Z,60.4
2018-08-24T08:49:51.321Z,60.5
2018-08-24T08:50:41.659Z,60.6
2018-08-24T08:51:31.731Z,60.8
2018-08-24T08:52:22.046Z,60.9
2018-08-24T08:53:11.874Z,60.9
2018-08-24T08:54:01.945Z,61
2018-08-24T08:54:52.001Z,61.1
2018-08-24T08:55:41.785Z,61.2
2018-08-24T08:56:31.623Z,61.4
2018-08-24T08:57:21.902Z,61.5
2018-08-24T08:58:12.215Z,61.7
2018-08-24T09:14:54.113Z,60.4
2018-08-24T09:15:43.369Z,60.4
2018-08-24T09:16:33.433Z,60.3
2018-08-24T09:17:23.492Z,60.3
2018-08-24T09:18:13.619Z,60.3
2018-08-24T09:19:03.640Z,60.2
2018-08-24T09:19:54.214Z,60.3
2018-08-24T09:20:43.786Z,60.4
2018-08-24T09:21:33.827Z,60.6
2018-08-24T09:22:23.903Z,60.8
2018-08-24T09:23:13.354Z,61.1
2018-08-24T09:24:03.759Z,61.4
2018-08-24T09:24:54.064Z,61.7
2018-08-24T09:25:44.417Z,61.9
2018-08-24T09:26:34.200Z,62.3
2018-08-24T09:27:24.289Z,62.4
2018-08-24T09:28:14.329Z,62.5
2018-08-24T09:29:04.447Z,62.6
2018-08-24T09:29:54.465Z,62.7
2018-08-24T09:30:44.538Z,62.8
2018-08-24T09:31:34.310Z,62.9
2018-08-24T09:32:25.009Z,63.1
2018-08-24T09:33:14.491Z,63
2018-08-24T09:34:04.532Z,62.9
2018-08-24T09:34:54.296Z,62.8
2018-08-24T09:35:44.644Z,62.7
2018-08-24T09:36:34.704Z,62.8
2018-08-24T09:37:24.797Z,62.6
2018-08-24T09:38:14.903Z,62.6
2018-08-24T09:39:04.939Z,62.8
2018-08-24T09:39:54.791Z,62.8
2018-08-24T09:40:45.315Z,62.8
2018-08-24T09:41:35.394Z,62.8
2018-08-24T09:42:25.464Z,62.8
2018-08-24T09:43:15.246Z,62.8
2018-08-24T09:44:05.833Z,63
2018-08-24T09:44:55.410Z,63.1
2018-08-24T09:45:45.446Z,63.3
2018-08-24T09:46:35.297Z,63.3
2018-08-24T09:47:25.272Z,63.4
2018-08-24T09:48:15.918Z,63.4
2018-08-24T09:49:06.639Z,63.5
2018-08-24T09:49:56.044Z,63.4
2018-08-24T09:50:45.885Z,63.4
2018-08-24T09:51:36.476Z,63.5
2018-08-24T09:52:26.341Z,63.6
2018-08-24T09:53:16.328Z,63.7
2018-08-24T09:54:06.331Z,63.9
2018-08-24T09:54:56.152Z,63.9
2018-08-24T09:55:46.489Z,63.9
2018-08-24T09:56:36.573Z,63.9
2018-08-24T09:57:26.662Z,63.9
2018-08-24T09:58:16.702Z,63.8
2018-08-24T09:59:06.747Z,63.8
2018-08-24T09:59:56.840Z,63.9
2018-08-24T10:00:46.633Z,64
2018-08-24T10:01:36.966Z,64.1
2018-08-24T10:02:27.077Z,64.1
2018-08-24T10:03:17.075Z,64.1
2018-08-24T10:04:07.148Z,64.2
2018-08-24T10:04:57.211Z,64.3
2018-08-24T10:05:47.012Z,64.4
2018-08-24T10:06:37.207Z,64.5
2018-08-24T10:07:27.428Z,64.6
2018-08-24T10:08:17.196Z,64.7
2018-08-24T10:09:07.595Z,64.8
2018-08-24T10:09:57.863Z,64.7
2018-08-24T10:10:47.398Z,64.8
2018-08-24T10:11:37.472Z,64.8
2018-08-24T10:12:27.859Z,64.9
2018-08-24T10:13:18.166Z,64.9
2018-08-24T10:14:07.655Z,64.9
2018-08-24T10:14:57.518Z,64.8
2018-08-24T10:15:48.092Z,64.7
2018-08-24T10:16:38.137Z,64.6
2018-08-24T10:17:27.924Z,64.6
2018-08-24T10:18:18.265Z,64.6
2018-08-24T10:19:08.315Z,64.8
2018-08-24T10:19:58.422Z,64.8
2018-08-24T10:20:48.452Z,64.9
2018-08-24T10:21:38.526Z,64.9
2018-08-24T10:22:28.593Z,64.9
2018-08-24T10:23:18.613Z,64.9
2018-08-24T10:24:08.734Z,65
2018-08-24T10:24:58.777Z,65
2018-08-24T10:25:48.858Z,65.2
2018-08-24T10:26:38.644Z,65.4
2018-08-24T10:27:28.710Z,65.5
2018-08-24T10:28:19.306Z,65.6
2018-08-24T10:29:09.337Z,65.8
2018-08-24T10:29:59.169Z,66
2018-08-24T10:30:49.251Z,66.1
2018-08-24T10:31:39.017Z,66.3
2018-08-24T10:32:29.399Z,66.4
2018-08-24T10:33:19.451Z,66.4
2018-08-24T10:34:09.569Z,66.3
2018-08-24T10:34:59.613Z,66.1
2018-08-24T10:35:49.643Z,65.8
2018-08-24T10:36:39.691Z,65.3
2018-08-24T10:37:29.496Z,65.2
2018-08-24T10:38:19.855Z,65.1
2018-08-24T10:39:10.430Z,65.1
2018-08-24T10:39:59.971Z,64.9
2018-08-24T10:40:50.068Z,64.6
2018-08-24T10:41:39.818Z,64.3
2018-08-24T10:42:29.887Z,64
2018-08-24T10:43:19.947Z,63.9
2018-08-24T10:44:10.321Z,63.9
2018-08-24T10:45:00.346Z,64.1
2018-08-24T10:45:50.413Z,64.2
2018-08-24T10:46:40.466Z,64.3
2018-08-24T10:47:30.000Z,64.5
2018-08-24T10:48:20.619Z,64.7
2018-08-24T10:49:10.157Z,64.8
2018-08-24T10:50:00.747Z,65
2018-08-24T10:50:50.857Z,65.1
2018-08-24T10:51:40.881Z,65.2
2018-08-24T10:52:30.940Z,65.2
2018-08-24T10:53:20.730Z,65.2
2018-08-24T10:54:10.794Z,65.2
2018-08-24T10:55:01.906Z,65.1
2018-08-24T10:55:51.952Z,65.2
2018-08-24T10:56:41.013Z,65.3
2018-08-24T10:57:31.371Z,65.4
2018-08-24T10:58:21.112Z,65.6
2018-08-24T10:59:11.487Z,65.8
2018-08-24T11:00:01.535Z,65.9
2018-08-24T11:00:51.607Z,66
2018-08-24T11:01:41.668Z,66.1
2018-08-24T11:02:31.996Z,66.1
2018-08-24T11:03:21.816Z,66.1
2018-08-24T11:04:11.564Z,66
2018-08-24T11:05:01.088Z,65.8
2018-08-24T11:05:52.029Z,65.4
2018-08-24T11:06:41.804Z,65.2
2018-08-24T11:07:32.455Z,64.9
2018-08-24T11:08:21.707Z,64.6
2018-08-24T11:09:12.285Z,64.5
2018-08-24T11:10:02.315Z,64.6
2018-08-24T11:10:52.126Z,64.8
2018-08-24T11:11:42.171Z,64.9
2018-08-24T11:12:32.008Z,65.1
2018-08-24T11:13:22.601Z,65.1
2018-08-24T11:14:12.092Z,64.9
2018-08-24T11:15:02.744Z,64.9
2018-08-24T11:15:52.494Z,64.6
2018-08-24T11:16:43.037Z,64.6
2018-08-24T11:17:32.921Z,64.5
2018-08-24T11:18:23.049Z,64.4
2018-08-24T11:19:12.801Z,64.6
2018-08-24T11:20:02.594Z,64.6
2018-08-24T11:20:52.871Z,64.7
2018-08-24T11:21:43.260Z,64.8
2018-08-24T11:22:33.299Z,64.9
2018-08-24T11:23:23.401Z,64.9
2018-08-24T11:24:13.443Z,64.9
2018-08-24T11:25:03.241Z,64.8
2018-08-24T11:25:53.295Z,64.8
2018-08-24T11:26:43.863Z,64.8
2018-08-24T11:27:33.693Z,64.8
2018-08-24T11:28:23.782Z,64.9
2018-08-24T11:29:13.756Z,65.1
2018-08-24T11:30:03.938Z,65.1
2018-08-24T11:30:53.680Z,65.1
2018-08-24T11:31:43.761Z,65
2018-08-24T11:32:34.111Z,64.9
2018-08-24T11:33:23.988Z,64.8
2018-08-24T11:34:14.221Z,64.6
2018-08-24T11:35:04.313Z,64.6
2018-08-24T11:35:54.633Z,64.5
2018-08-24T11:36:44.133Z,64.6
2018-08-24T11:37:33.903Z,64.7
2018-08-24T11:38:23.714Z,64.7
2018-08-24T11:39:14.640Z,64.6
2018-08-24T11:40:04.665Z,64.6
2018-08-24T11:40:54.759Z,64.6
2018-08-24T11:41:45.064Z,64.6
2018-08-24T11:42:34.890Z,64.6
2018-08-24T11:43:24.938Z,64.6
2018-08-24T11:44:15.018Z,64.6
2018-08-24T11:45:05.080Z,64.4
2018-08-24T11:45:54.577Z,64.3
2018-08-24T11:46:45.189Z,64.1
2018-08-24T11:47:34.987Z,63.9
2018-08-24T11:48:25.348Z,63.8
2018-08-24T11:49:15.143Z,63.6
2018-08-24T11:50:05.461Z,63.7
2018-08-24T11:50:55.250Z,63.8
2018-08-24T11:51:45.590Z,64
2018-08-24T11:52:35.385Z,64.1
2018-08-24T11:53:25.969Z,64.1
2018-08-24T11:54:16.576Z,64.1
2018-08-24T11:55:05.594Z,64.1
2018-08-24T11:55:55.936Z,64.2
2018-08-24T11:56:45.737Z,64.3
2018-08-24T11:57:36.071Z,64.4
2018-08-24T11:58:26.593Z,64.4
2018-08-24T11:59:16.183Z,64.4
2018-08-24T12:00:06.258Z,64.4
2018-08-24T12:00:56.324Z,64.5
2018-08-24T12:01:46.378Z,64.4
2018-08-24T12:02:36.462Z,64.4
2018-08-24T12:03:26.229Z,64.4
2018-08-24T12:04:16.581Z,64.6
2018-08-24T12:05:06.631Z,64.6
2018-08-24T12:05:56.701Z,64.6
2018-08-24T12:06:46.759Z,64.6
2018-08-24T12:07:36.263Z,64.6
2018-08-24T12:08:27.540Z,64.6
2018-08-24T12:09:17.019Z,64.5